<?xml version="1.0" encoding="UTF-8" standalone="no" ?>
<gpx xmlns="http://www.topografix.com/GPX/1/1" xmlns:xsi="http://www.w3.org/2001/XMLSchema-instance" xsi:schemaLocation="http://www.topografix.com/GPX/1/1 http://www.topografix.com/GPX/1/1/gpx.xsd" version="1.1" creator="VisuGPX - https://www.visugpx.com">
  <metadata>
    <name>Chagny - Saint Gengoux le National</name>
    <desc><![CDATA[Chemin de Compostelle]]></desc>
  </metadata>
  <trk>
    <name><![CDATA[3 -chagny - Saint-gengoux-le-national on GPSies.com]]></name>
    <trkseg>
      <trkpt lat="46.90656" lon="4.74611">
        <ele>225.9</ele>
        <time>2010-01-01T00:00:00Z</time>
      </trkpt>
      <trkpt lat="46.90577" lon="4.74545">
        <ele>219.8</ele>
        <time>2010-01-01T00:00:36Z</time>
      </trkpt>
      <trkpt lat="46.90485" lon="4.74694">
        <ele>216.5</ele>
        <time>2010-01-01T00:01:31Z</time>
      </trkpt>
      <trkpt lat="46.9043" lon="4.74548">
        <ele>217</ele>
        <time>2010-01-01T00:02:16Z</time>
      </trkpt>
      <trkpt lat="46.90356" lon="4.74399">
        <ele>218</ele>
        <time>2010-01-01T00:03:07Z</time>
      </trkpt>
      <trkpt lat="46.90189" lon="4.74181">
        <ele>221.6</ele>
        <time>2010-01-01T00:04:37Z</time>
      </trkpt>
      <trkpt lat="46.90081" lon="4.74276">
        <ele>227.3</ele>
        <time>2010-01-01T00:05:27Z</time>
      </trkpt>
      <trkpt lat="46.90019" lon="4.74359">
        <ele>233.9</ele>
        <time>2010-01-01T00:06:00Z</time>
      </trkpt>
      <trkpt lat="46.89975" lon="4.74439">
        <ele>237</ele>
        <time>2010-01-01T00:06:29Z</time>
      </trkpt>
      <trkpt lat="46.89942" lon="4.74499">
        <ele>237.3</ele>
        <time>2010-01-01T00:06:50Z</time>
      </trkpt>
      <trkpt lat="46.89915" lon="4.74596">
        <ele>237.2</ele>
        <time>2010-01-01T00:07:18Z</time>
      </trkpt>
      <trkpt lat="46.8987" lon="4.74706">
        <ele>241.4</ele>
        <time>2010-01-01T00:07:54Z</time>
      </trkpt>
      <trkpt lat="46.89791" lon="4.74644">
        <ele>248.4</ele>
        <time>2010-01-01T00:08:29Z</time>
      </trkpt>
      <trkpt lat="46.89772" lon="4.74634">
        <ele>250.3</ele>
        <time>2010-01-01T00:08:37Z</time>
      </trkpt>
      <trkpt lat="46.89734" lon="4.74627">
        <ele>253</ele>
        <time>2010-01-01T00:08:53Z</time>
      </trkpt>
      <trkpt lat="46.89704" lon="4.74613">
        <ele>255.5</ele>
        <time>2010-01-01T00:09:05Z</time>
      </trkpt>
      <trkpt lat="46.89668" lon="4.74594">
        <ele>257.2</ele>
        <time>2010-01-01T00:09:21Z</time>
      </trkpt>
      <trkpt lat="46.89651" lon="4.74585">
        <ele>257.9</ele>
        <time>2010-01-01T00:09:28Z</time>
      </trkpt>
      <trkpt lat="46.89601" lon="4.74575">
        <ele>257.5</ele>
        <time>2010-01-01T00:09:48Z</time>
      </trkpt>
      <trkpt lat="46.89587" lon="4.74597">
        <ele>255.6</ele>
        <time>2010-01-01T00:09:56Z</time>
      </trkpt>
      <trkpt lat="46.89577" lon="4.74616">
        <ele>253.2</ele>
        <time>2010-01-01T00:10:03Z</time>
      </trkpt>
      <trkpt lat="46.89543" lon="4.74635">
        <ele>250.3</ele>
        <time>2010-01-01T00:10:17Z</time>
      </trkpt>
      <trkpt lat="46.89506" lon="4.74656">
        <ele>246.1</ele>
        <time>2010-01-01T00:10:33Z</time>
      </trkpt>
      <trkpt lat="46.89489" lon="4.7468">
        <ele>244.8</ele>
        <time>2010-01-01T00:10:43Z</time>
      </trkpt>
      <trkpt lat="46.89469" lon="4.74707">
        <ele>243.2</ele>
        <time>2010-01-01T00:10:54Z</time>
      </trkpt>
      <trkpt lat="46.89439" lon="4.74735">
        <ele>242.5</ele>
        <time>2010-01-01T00:11:08Z</time>
      </trkpt>
      <trkpt lat="46.89419" lon="4.74755">
        <ele>241.8</ele>
        <time>2010-01-01T00:11:18Z</time>
      </trkpt>
      <trkpt lat="46.89402" lon="4.74758">
        <ele>241.3</ele>
        <time>2010-01-01T00:11:25Z</time>
      </trkpt>
      <trkpt lat="46.89384" lon="4.74759">
        <ele>240.9</ele>
        <time>2010-01-01T00:11:32Z</time>
      </trkpt>
      <trkpt lat="46.89369" lon="4.7478">
        <ele>240.2</ele>
        <time>2010-01-01T00:11:40Z</time>
      </trkpt>
      <trkpt lat="46.89367" lon="4.74792">
        <ele>239.6</ele>
        <time>2010-01-01T00:11:44Z</time>
      </trkpt>
      <trkpt lat="46.89303" lon="4.74793">
        <ele>239.5</ele>
        <time>2010-01-01T00:12:09Z</time>
      </trkpt>
      <trkpt lat="46.89245" lon="4.74763">
        <ele>240.5</ele>
        <time>2010-01-01T00:12:34Z</time>
      </trkpt>
      <trkpt lat="46.8922" lon="4.74733">
        <ele>241.5</ele>
        <time>2010-01-01T00:12:47Z</time>
      </trkpt>
      <trkpt lat="46.89201" lon="4.74697">
        <ele>243</ele>
        <time>2010-01-01T00:12:59Z</time>
      </trkpt>
      <trkpt lat="46.89171" lon="4.74697">
        <ele>242.8</ele>
        <time>2010-01-01T00:13:11Z</time>
      </trkpt>
      <trkpt lat="46.89108" lon="4.74684">
        <ele>242.1</ele>
        <time>2010-01-01T00:13:37Z</time>
      </trkpt>
      <trkpt lat="46.89038" lon="4.74669">
        <ele>244.4</ele>
        <time>2010-01-01T00:14:05Z</time>
      </trkpt>
      <trkpt lat="46.89004" lon="4.74654">
        <ele>246</ele>
        <time>2010-01-01T00:14:19Z</time>
      </trkpt>
      <trkpt lat="46.88961" lon="4.7464">
        <ele>246.9</ele>
        <time>2010-01-01T00:14:37Z</time>
      </trkpt>
      <trkpt lat="46.88891" lon="4.74619">
        <ele>252.2</ele>
        <time>2010-01-01T00:15:06Z</time>
      </trkpt>
      <trkpt lat="46.88834" lon="4.74592">
        <ele>254.1</ele>
        <time>2010-01-01T00:15:29Z</time>
      </trkpt>
      <trkpt lat="46.88717" lon="4.74587">
        <ele>251.3</ele>
        <time>2010-01-01T00:16:16Z</time>
      </trkpt>
      <trkpt lat="46.88703" lon="4.74596">
        <ele>249.5</ele>
        <time>2010-01-01T00:16:23Z</time>
      </trkpt>
      <trkpt lat="46.88672" lon="4.74597">
        <ele>247.8</ele>
        <time>2010-01-01T00:16:35Z</time>
      </trkpt>
      <trkpt lat="46.88467" lon="4.74471">
        <ele>241.1</ele>
        <time>2010-01-01T00:18:04Z</time>
      </trkpt>
      <trkpt lat="46.88382" lon="4.74466">
        <ele>237.6</ele>
        <time>2010-01-01T00:18:38Z</time>
      </trkpt>
      <trkpt lat="46.8832" lon="4.74488">
        <ele>233.7</ele>
        <time>2010-01-01T00:19:03Z</time>
      </trkpt>
      <trkpt lat="46.88178" lon="4.74389">
        <ele>229.4</ele>
        <time>2010-01-01T00:20:06Z</time>
      </trkpt>
      <trkpt lat="46.88108" lon="4.74326">
        <ele>229.1</ele>
        <time>2010-01-01T00:20:39Z</time>
      </trkpt>
      <trkpt lat="46.88069" lon="4.74308">
        <ele>228.3</ele>
        <time>2010-01-01T00:20:56Z</time>
      </trkpt>
      <trkpt lat="46.87973" lon="4.74213">
        <ele>227</ele>
        <time>2010-01-01T00:21:42Z</time>
      </trkpt>
      <trkpt lat="46.87912" lon="4.7418">
        <ele>225.3</ele>
        <time>2010-01-01T00:22:08Z</time>
      </trkpt>
      <trkpt lat="46.87888" lon="4.7416">
        <ele>225</ele>
        <time>2010-01-01T00:22:19Z</time>
      </trkpt>
      <trkpt lat="46.87859" lon="4.74086">
        <ele>224.7</ele>
        <time>2010-01-01T00:22:42Z</time>
      </trkpt>
      <trkpt lat="46.87815" lon="4.74026">
        <ele>224.4</ele>
        <time>2010-01-01T00:23:07Z</time>
      </trkpt>
      <trkpt lat="46.87685" lon="4.73896">
        <ele>225.5</ele>
        <time>2010-01-01T00:24:09Z</time>
      </trkpt>
      <trkpt lat="46.87645" lon="4.73836">
        <ele>225.2</ele>
        <time>2010-01-01T00:24:32Z</time>
      </trkpt>
      <trkpt lat="46.87591" lon="4.73968">
        <ele>222.4</ele>
        <time>2010-01-01T00:25:14Z</time>
      </trkpt>
      <trkpt lat="46.875" lon="4.73901">
        <ele>222.6</ele>
        <time>2010-01-01T00:25:55Z</time>
      </trkpt>
      <trkpt lat="46.87495" lon="4.73851">
        <ele>223.6</ele>
        <time>2010-01-01T00:26:09Z</time>
      </trkpt>
      <trkpt lat="46.87452" lon="4.73796">
        <ele>228.4</ele>
        <time>2010-01-01T00:26:32Z</time>
      </trkpt>
      <trkpt lat="46.87428" lon="4.73791">
        <ele>233</ele>
        <time>2010-01-01T00:26:42Z</time>
      </trkpt>
      <trkpt lat="46.87403" lon="4.73822">
        <ele>238.2</ele>
        <time>2010-01-01T00:26:55Z</time>
      </trkpt>
      <trkpt lat="46.87359" lon="4.73927">
        <ele>245.6</ele>
        <time>2010-01-01T00:27:28Z</time>
      </trkpt>
      <trkpt lat="46.873" lon="4.73884">
        <ele>252.4</ele>
        <time>2010-01-01T00:27:55Z</time>
      </trkpt>
      <trkpt lat="46.87272" lon="4.73845">
        <ele>255</ele>
        <time>2010-01-01T00:28:10Z</time>
      </trkpt>
      <trkpt lat="46.87196" lon="4.7374">
        <ele>260.1</ele>
        <time>2010-01-01T00:28:52Z</time>
      </trkpt>
      <trkpt lat="46.8714" lon="4.73684">
        <ele>261.4</ele>
        <time>2010-01-01T00:29:19Z</time>
      </trkpt>
      <trkpt lat="46.87051" lon="4.73647">
        <ele>262.1</ele>
        <time>2010-01-01T00:29:56Z</time>
      </trkpt>
      <trkpt lat="46.87008" lon="4.73626">
        <ele>261.3</ele>
        <time>2010-01-01T00:30:14Z</time>
      </trkpt>
      <trkpt lat="46.86982" lon="4.7362">
        <ele>260.8</ele>
        <time>2010-01-01T00:30:25Z</time>
      </trkpt>
      <trkpt lat="46.86881" lon="4.73558">
        <ele>260</ele>
        <time>2010-01-01T00:31:09Z</time>
      </trkpt>
      <trkpt lat="46.86834" lon="4.73495">
        <ele>258.5</ele>
        <time>2010-01-01T00:31:34Z</time>
      </trkpt>
      <trkpt lat="46.86801" lon="4.73449">
        <ele>255.8</ele>
        <time>2010-01-01T00:31:53Z</time>
      </trkpt>
      <trkpt lat="46.86764" lon="4.7343">
        <ele>253.7</ele>
        <time>2010-01-01T00:32:08Z</time>
      </trkpt>
      <trkpt lat="46.86718" lon="4.7342">
        <ele>255.4</ele>
        <time>2010-01-01T00:32:27Z</time>
      </trkpt>
      <trkpt lat="46.8667" lon="4.73412">
        <ele>258.9</ele>
        <time>2010-01-01T00:32:46Z</time>
      </trkpt>
      <trkpt lat="46.86634" lon="4.73391">
        <ele>262.2</ele>
        <time>2010-01-01T00:33:02Z</time>
      </trkpt>
      <trkpt lat="46.86604" lon="4.73369">
        <ele>264.5</ele>
        <time>2010-01-01T00:33:15Z</time>
      </trkpt>
      <trkpt lat="46.86552" lon="4.73358">
        <ele>267.8</ele>
        <time>2010-01-01T00:33:36Z</time>
      </trkpt>
      <trkpt lat="46.86428" lon="4.73277">
        <ele>272.6</ele>
        <time>2010-01-01T00:34:31Z</time>
      </trkpt>
      <trkpt lat="46.86317" lon="4.73191">
        <ele>277.5</ele>
        <time>2010-01-01T00:35:21Z</time>
      </trkpt>
      <trkpt lat="46.86249" lon="4.73121">
        <ele>278.4</ele>
        <time>2010-01-01T00:35:54Z</time>
      </trkpt>
      <trkpt lat="46.86214" lon="4.73057">
        <ele>278.9</ele>
        <time>2010-01-01T00:36:16Z</time>
      </trkpt>
      <trkpt lat="46.86189" lon="4.73028">
        <ele>280.4</ele>
        <time>2010-01-01T00:36:29Z</time>
      </trkpt>
      <trkpt lat="46.86041" lon="4.72957">
        <ele>283.5</ele>
        <time>2010-01-01T00:37:32Z</time>
      </trkpt>
      <trkpt lat="46.86" lon="4.72929">
        <ele>283</ele>
        <time>2010-01-01T00:37:50Z</time>
      </trkpt>
      <trkpt lat="46.85961" lon="4.7291">
        <ele>282.6</ele>
        <time>2010-01-01T00:38:06Z</time>
      </trkpt>
      <trkpt lat="46.85897" lon="4.72895">
        <ele>282.2</ele>
        <time>2010-01-01T00:38:32Z</time>
      </trkpt>
      <trkpt lat="46.85796" lon="4.72806">
        <ele>283</ele>
        <time>2010-01-01T00:39:19Z</time>
      </trkpt>
      <trkpt lat="46.85728" lon="4.72687">
        <ele>285.9</ele>
        <time>2010-01-01T00:40:02Z</time>
      </trkpt>
      <trkpt lat="46.85653" lon="4.72803">
        <ele>295.7</ele>
        <time>2010-01-01T00:40:45Z</time>
      </trkpt>
      <trkpt lat="46.85595" lon="4.72712">
        <ele>301.5</ele>
        <time>2010-01-01T00:41:19Z</time>
      </trkpt>
      <trkpt lat="46.85538" lon="4.72657">
        <ele>309.5</ele>
        <time>2010-01-01T00:41:47Z</time>
      </trkpt>
      <trkpt lat="46.85483" lon="4.72563">
        <ele>314.3</ele>
        <time>2010-01-01T00:42:21Z</time>
      </trkpt>
      <trkpt lat="46.85414" lon="4.72471">
        <ele>320</ele>
        <time>2010-01-01T00:42:58Z</time>
      </trkpt>
      <trkpt lat="46.85365" lon="4.72405">
        <ele>320.8</ele>
        <time>2010-01-01T00:43:25Z</time>
      </trkpt>
      <trkpt lat="46.85344" lon="4.72397">
        <ele>321</ele>
        <time>2010-01-01T00:43:33Z</time>
      </trkpt>
      <trkpt lat="46.85287" lon="4.72281">
        <ele>322</ele>
        <time>2010-01-01T00:44:13Z</time>
      </trkpt>
      <trkpt lat="46.85196" lon="4.72227">
        <ele>320.1</ele>
        <time>2010-01-01T00:44:52Z</time>
      </trkpt>
      <trkpt lat="46.85097" lon="4.72209">
        <ele>319</ele>
        <time>2010-01-01T00:45:32Z</time>
      </trkpt>
      <trkpt lat="46.84966" lon="4.72155">
        <ele>322.7</ele>
        <time>2010-01-01T00:46:26Z</time>
      </trkpt>
      <trkpt lat="46.8491" lon="4.72136">
        <ele>325.4</ele>
        <time>2010-01-01T00:46:49Z</time>
      </trkpt>
      <trkpt lat="46.84844" lon="4.72107">
        <ele>329.4</ele>
        <time>2010-01-01T00:47:17Z</time>
      </trkpt>
      <trkpt lat="46.84767" lon="4.72078">
        <ele>335.2</ele>
        <time>2010-01-01T00:47:49Z</time>
      </trkpt>
      <trkpt lat="46.84637" lon="4.72016">
        <ele>326.9</ele>
        <time>2010-01-01T00:48:43Z</time>
      </trkpt>
      <trkpt lat="46.84506" lon="4.71995">
        <ele>310.2</ele>
        <time>2010-01-01T00:49:36Z</time>
      </trkpt>
      <trkpt lat="46.84486" lon="4.71987">
        <ele>307.6</ele>
        <time>2010-01-01T00:49:44Z</time>
      </trkpt>
      <trkpt lat="46.84464" lon="4.7198">
        <ele>304.6</ele>
        <time>2010-01-01T00:49:53Z</time>
      </trkpt>
      <trkpt lat="46.8432" lon="4.7197">
        <ele>285.1</ele>
        <time>2010-01-01T00:50:51Z</time>
      </trkpt>
      <trkpt lat="46.84139" lon="4.71931">
        <ele>267.5</ele>
        <time>2010-01-01T00:52:04Z</time>
      </trkpt>
      <trkpt lat="46.84101" lon="4.71925">
        <ele>264.8</ele>
        <time>2010-01-01T00:52:20Z</time>
      </trkpt>
      <trkpt lat="46.84031" lon="4.71929">
        <ele>261.6</ele>
        <time>2010-01-01T00:52:48Z</time>
      </trkpt>
      <trkpt lat="46.83943" lon="4.71905">
        <ele>256.5</ele>
        <time>2010-01-01T00:53:23Z</time>
      </trkpt>
      <trkpt lat="46.83845" lon="4.71852">
        <ele>246.8</ele>
        <time>2010-01-01T00:54:05Z</time>
      </trkpt>
      <trkpt lat="46.837" lon="4.71752">
        <ele>237.3</ele>
        <time>2010-01-01T00:55:10Z</time>
      </trkpt>
      <trkpt lat="46.83647" lon="4.71717">
        <ele>237</ele>
        <time>2010-01-01T00:55:33Z</time>
      </trkpt>
      <trkpt lat="46.83624" lon="4.71746">
        <ele>237</ele>
        <time>2010-01-01T00:55:45Z</time>
      </trkpt>
      <trkpt lat="46.83578" lon="4.71735">
        <ele>236.8</ele>
        <time>2010-01-01T00:56:04Z</time>
      </trkpt>
      <trkpt lat="46.83533" lon="4.71723">
        <ele>236.9</ele>
        <time>2010-01-01T00:56:22Z</time>
      </trkpt>
      <trkpt lat="46.83482" lon="4.71746">
        <ele>235.7</ele>
        <time>2010-01-01T00:56:44Z</time>
      </trkpt>
      <trkpt lat="46.83415" lon="4.71752">
        <ele>236.9</ele>
        <time>2010-01-01T00:57:10Z</time>
      </trkpt>
      <trkpt lat="46.83369" lon="4.71735">
        <ele>237.6</ele>
        <time>2010-01-01T00:57:29Z</time>
      </trkpt>
      <trkpt lat="46.83331" lon="4.71711">
        <ele>239.5</ele>
        <time>2010-01-01T00:57:46Z</time>
      </trkpt>
      <trkpt lat="46.83304" lon="4.71676">
        <ele>241.9</ele>
        <time>2010-01-01T00:58:00Z</time>
      </trkpt>
      <trkpt lat="46.83235" lon="4.71636">
        <ele>250.2</ele>
        <time>2010-01-01T00:58:30Z</time>
      </trkpt>
      <trkpt lat="46.8313" lon="4.7159">
        <ele>264.2</ele>
        <time>2010-01-01T00:59:14Z</time>
      </trkpt>
      <trkpt lat="46.83094" lon="4.71583">
        <ele>270.1</ele>
        <time>2010-01-01T00:59:29Z</time>
      </trkpt>
      <trkpt lat="46.83028" lon="4.71513">
        <ele>282.3</ele>
        <time>2010-01-01T01:00:01Z</time>
      </trkpt>
      <trkpt lat="46.82996" lon="4.71517">
        <ele>290</ele>
        <time>2010-01-01T01:00:14Z</time>
      </trkpt>
      <trkpt lat="46.82984" lon="4.71528">
        <ele>291.6</ele>
        <time>2010-01-01T01:00:20Z</time>
      </trkpt>
      <trkpt lat="46.82903" lon="4.71486">
        <ele>291.3</ele>
        <time>2010-01-01T01:00:54Z</time>
      </trkpt>
      <trkpt lat="46.82839" lon="4.71419">
        <ele>281.2</ele>
        <time>2010-01-01T01:01:26Z</time>
      </trkpt>
      <trkpt lat="46.82809" lon="4.71405">
        <ele>277.9</ele>
        <time>2010-01-01T01:01:38Z</time>
      </trkpt>
      <trkpt lat="46.82791" lon="4.71408">
        <ele>279.2</ele>
        <time>2010-01-01T01:01:45Z</time>
      </trkpt>
      <trkpt lat="46.82784" lon="4.71428">
        <ele>279.2</ele>
        <time>2010-01-01T01:01:51Z</time>
      </trkpt>
      <trkpt lat="46.82779" lon="4.71472">
        <ele>278.8</ele>
        <time>2010-01-01T01:02:04Z</time>
      </trkpt>
      <trkpt lat="46.82779" lon="4.71622">
        <ele>274.5</ele>
        <time>2010-01-01T01:02:45Z</time>
      </trkpt>
      <trkpt lat="46.82713" lon="4.71442">
        <ele>290.1</ele>
        <time>2010-01-01T01:03:41Z</time>
      </trkpt>
      <trkpt lat="46.82576" lon="4.71232">
        <ele>301.5</ele>
        <time>2010-01-01T01:05:00Z</time>
      </trkpt>
      <trkpt lat="46.82527" lon="4.71156">
        <ele>304.3</ele>
        <time>2010-01-01T01:05:29Z</time>
      </trkpt>
      <trkpt lat="46.82494" lon="4.71128">
        <ele>307.7</ele>
        <time>2010-01-01T01:05:44Z</time>
      </trkpt>
      <trkpt lat="46.82465" lon="4.71117">
        <ele>311.1</ele>
        <time>2010-01-01T01:05:56Z</time>
      </trkpt>
      <trkpt lat="46.82428" lon="4.71123">
        <ele>315.8</ele>
        <time>2010-01-01T01:06:11Z</time>
      </trkpt>
      <trkpt lat="46.82401" lon="4.71164">
        <ele>319.7</ele>
        <time>2010-01-01T01:06:27Z</time>
      </trkpt>
      <trkpt lat="46.8238" lon="4.7129">
        <ele>304.7</ele>
        <time>2010-01-01T01:07:02Z</time>
      </trkpt>
      <trkpt lat="46.82321" lon="4.71284">
        <ele>296.2</ele>
        <time>2010-01-01T01:07:26Z</time>
      </trkpt>
      <trkpt lat="46.8222" lon="4.71241">
        <ele>292.1</ele>
        <time>2010-01-01T01:08:08Z</time>
      </trkpt>
      <trkpt lat="46.82156" lon="4.71223">
        <ele>288.2</ele>
        <time>2010-01-01T01:08:34Z</time>
      </trkpt>
      <trkpt lat="46.82015" lon="4.71185">
        <ele>288.8</ele>
        <time>2010-01-01T01:09:31Z</time>
      </trkpt>
      <trkpt lat="46.81899" lon="4.71093">
        <ele>291.3</ele>
        <time>2010-01-01T01:10:24Z</time>
      </trkpt>
      <trkpt lat="46.81797" lon="4.71054">
        <ele>282</ele>
        <time>2010-01-01T01:11:06Z</time>
      </trkpt>
      <trkpt lat="46.81741" lon="4.71027">
        <ele>277.1</ele>
        <time>2010-01-01T01:11:30Z</time>
      </trkpt>
      <trkpt lat="46.81702" lon="4.7102">
        <ele>274.2</ele>
        <time>2010-01-01T01:11:46Z</time>
      </trkpt>
      <trkpt lat="46.81586" lon="4.71064">
        <ele>260.5</ele>
        <time>2010-01-01T01:12:34Z</time>
      </trkpt>
      <trkpt lat="46.81558" lon="4.71179">
        <ele>253</ele>
        <time>2010-01-01T01:13:07Z</time>
      </trkpt>
      <trkpt lat="46.8158" lon="4.71244">
        <ele>251.1</ele>
        <time>2010-01-01T01:13:27Z</time>
      </trkpt>
      <trkpt lat="46.81553" lon="4.71296">
        <ele>248.3</ele>
        <time>2010-01-01T01:13:45Z</time>
      </trkpt>
      <trkpt lat="46.81547" lon="4.7136">
        <ele>245.8</ele>
        <time>2010-01-01T01:14:03Z</time>
      </trkpt>
      <trkpt lat="46.81531" lon="4.71396">
        <ele>243.8</ele>
        <time>2010-01-01T01:14:15Z</time>
      </trkpt>
      <trkpt lat="46.81539" lon="4.71408">
        <ele>243.7</ele>
        <time>2010-01-01T01:14:20Z</time>
      </trkpt>
      <trkpt lat="46.81506" lon="4.71473">
        <ele>239.2</ele>
        <time>2010-01-01T01:14:42Z</time>
      </trkpt>
      <trkpt lat="46.81477" lon="4.71543">
        <ele>235.3</ele>
        <time>2010-01-01T01:15:04Z</time>
      </trkpt>
      <trkpt lat="46.81311" lon="4.71719">
        <ele>231.2</ele>
        <time>2010-01-01T01:16:26Z</time>
      </trkpt>
      <trkpt lat="46.81197" lon="4.71833">
        <ele>220.4</ele>
        <time>2010-01-01T01:17:22Z</time>
      </trkpt>
      <trkpt lat="46.81195" lon="4.71897">
        <ele>215.8</ele>
        <time>2010-01-01T01:17:39Z</time>
      </trkpt>
      <trkpt lat="46.81095" lon="4.71986">
        <ele>217.6</ele>
        <time>2010-01-01T01:18:26Z</time>
      </trkpt>
      <trkpt lat="46.81095" lon="4.72066">
        <ele>217.2</ele>
        <time>2010-01-01T01:18:48Z</time>
      </trkpt>
      <trkpt lat="46.81072" lon="4.72049">
        <ele>221.4</ele>
        <time>2010-01-01T01:18:59Z</time>
      </trkpt>
      <trkpt lat="46.81049" lon="4.7201">
        <ele>222.5</ele>
        <time>2010-01-01T01:19:12Z</time>
      </trkpt>
      <trkpt lat="46.80984" lon="4.72014">
        <ele>231.5</ele>
        <time>2010-01-01T01:19:39Z</time>
      </trkpt>
      <trkpt lat="46.80846" lon="4.71926">
        <ele>240.3</ele>
        <time>2010-01-01T01:20:39Z</time>
      </trkpt>
      <trkpt lat="46.80814" lon="4.71923">
        <ele>244.2</ele>
        <time>2010-01-01T01:20:52Z</time>
      </trkpt>
      <trkpt lat="46.80539" lon="4.71789">
        <ele>269.1</ele>
        <time>2010-01-01T01:22:48Z</time>
      </trkpt>
      <trkpt lat="46.80507" lon="4.7176">
        <ele>271.6</ele>
        <time>2010-01-01T01:23:03Z</time>
      </trkpt>
      <trkpt lat="46.80477" lon="4.71741">
        <ele>275.2</ele>
        <time>2010-01-01T01:23:16Z</time>
      </trkpt>
      <trkpt lat="46.80433" lon="4.71704">
        <ele>280.6</ele>
        <time>2010-01-01T01:23:37Z</time>
      </trkpt>
      <trkpt lat="46.80386" lon="4.71682">
        <ele>286.2</ele>
        <time>2010-01-01T01:23:56Z</time>
      </trkpt>
      <trkpt lat="46.80354" lon="4.71663">
        <ele>289.3</ele>
        <time>2010-01-01T01:24:10Z</time>
      </trkpt>
      <trkpt lat="46.80087" lon="4.71636">
        <ele>313.2</ele>
        <time>2010-01-01T01:25:57Z</time>
      </trkpt>
      <trkpt lat="46.79837" lon="4.71551">
        <ele>348.3</ele>
        <time>2010-01-01T01:27:40Z</time>
      </trkpt>
      <trkpt lat="46.79737" lon="4.71567">
        <ele>356.2</ele>
        <time>2010-01-01T01:28:20Z</time>
      </trkpt>
      <trkpt lat="46.7968" lon="4.71542">
        <ele>356.7</ele>
        <time>2010-01-01T01:28:44Z</time>
      </trkpt>
      <trkpt lat="46.7967" lon="4.71517">
        <ele>356.4</ele>
        <time>2010-01-01T01:28:52Z</time>
      </trkpt>
      <trkpt lat="46.79693" lon="4.71366">
        <ele>363.8</ele>
        <time>2010-01-01T01:29:34Z</time>
      </trkpt>
      <trkpt lat="46.79625" lon="4.71316">
        <ele>365.9</ele>
        <time>2010-01-01T01:30:04Z</time>
      </trkpt>
      <trkpt lat="46.79599" lon="4.71262">
        <ele>368</ele>
        <time>2010-01-01T01:30:23Z</time>
      </trkpt>
      <trkpt lat="46.79576" lon="4.71236">
        <ele>369</ele>
        <time>2010-01-01T01:30:34Z</time>
      </trkpt>
      <trkpt lat="46.79515" lon="4.71073">
        <ele>378.4</ele>
        <time>2010-01-01T01:31:25Z</time>
      </trkpt>
      <trkpt lat="46.79526" lon="4.71016">
        <ele>378.6</ele>
        <time>2010-01-01T01:31:41Z</time>
      </trkpt>
      <trkpt lat="46.79547" lon="4.70972">
        <ele>378</ele>
        <time>2010-01-01T01:31:56Z</time>
      </trkpt>
      <trkpt lat="46.79578" lon="4.70923">
        <ele>377</ele>
        <time>2010-01-01T01:32:14Z</time>
      </trkpt>
      <trkpt lat="46.79583" lon="4.70903">
        <ele>375.5</ele>
        <time>2010-01-01T01:32:20Z</time>
      </trkpt>
      <trkpt lat="46.7951" lon="4.70856">
        <ele>382.3</ele>
        <time>2010-01-01T01:32:52Z</time>
      </trkpt>
      <trkpt lat="46.79209" lon="4.7072">
        <ele>405.9</ele>
        <time>2010-01-01T01:34:58Z</time>
      </trkpt>
      <trkpt lat="46.79128" lon="4.70659">
        <ele>412</ele>
        <time>2010-01-01T01:35:35Z</time>
      </trkpt>
      <trkpt lat="46.79072" lon="4.70649">
        <ele>415.6</ele>
        <time>2010-01-01T01:35:57Z</time>
      </trkpt>
      <trkpt lat="46.79021" lon="4.70626">
        <ele>419.5</ele>
        <time>2010-01-01T01:36:19Z</time>
      </trkpt>
      <trkpt lat="46.78971" lon="4.70605">
        <ele>422.5</ele>
        <time>2010-01-01T01:36:40Z</time>
      </trkpt>
      <trkpt lat="46.78889" lon="4.7063">
        <ele>427.3</ele>
        <time>2010-01-01T01:37:13Z</time>
      </trkpt>
      <trkpt lat="46.78814" lon="4.70683">
        <ele>429.4</ele>
        <time>2010-01-01T01:37:46Z</time>
      </trkpt>
      <trkpt lat="46.7874" lon="4.70747">
        <ele>431.1</ele>
        <time>2010-01-01T01:38:21Z</time>
      </trkpt>
      <trkpt lat="46.78688" lon="4.70823">
        <ele>434.7</ele>
        <time>2010-01-01T01:38:50Z</time>
      </trkpt>
      <trkpt lat="46.7865" lon="4.70859">
        <ele>436</ele>
        <time>2010-01-01T01:39:08Z</time>
      </trkpt>
      <trkpt lat="46.78576" lon="4.70885">
        <ele>434.5</ele>
        <time>2010-01-01T01:39:39Z</time>
      </trkpt>
      <trkpt lat="46.78426" lon="4.70896">
        <ele>420.7</ele>
        <time>2010-01-01T01:40:39Z</time>
      </trkpt>
      <trkpt lat="46.78387" lon="4.70857">
        <ele>414.9</ele>
        <time>2010-01-01T01:40:58Z</time>
      </trkpt>
      <trkpt lat="46.78323" lon="4.70736">
        <ele>407.5</ele>
        <time>2010-01-01T01:41:40Z</time>
      </trkpt>
      <trkpt lat="46.7829" lon="4.70697">
        <ele>403.6</ele>
        <time>2010-01-01T01:41:57Z</time>
      </trkpt>
      <trkpt lat="46.78257" lon="4.70673">
        <ele>399.8</ele>
        <time>2010-01-01T01:42:12Z</time>
      </trkpt>
      <trkpt lat="46.78218" lon="4.70654">
        <ele>394.2</ele>
        <time>2010-01-01T01:42:28Z</time>
      </trkpt>
      <trkpt lat="46.78194" lon="4.70623">
        <ele>391.6</ele>
        <time>2010-01-01T01:42:41Z</time>
      </trkpt>
      <trkpt lat="46.78166" lon="4.70633">
        <ele>386.7</ele>
        <time>2010-01-01T01:42:52Z</time>
      </trkpt>
      <trkpt lat="46.78145" lon="4.70644">
        <ele>383.1</ele>
        <time>2010-01-01T01:43:01Z</time>
      </trkpt>
      <trkpt lat="46.78114" lon="4.70633">
        <ele>379.4</ele>
        <time>2010-01-01T01:43:14Z</time>
      </trkpt>
      <trkpt lat="46.78081" lon="4.70634">
        <ele>374.2</ele>
        <time>2010-01-01T01:43:28Z</time>
      </trkpt>
      <trkpt lat="46.78056" lon="4.70641">
        <ele>371</ele>
        <time>2010-01-01T01:43:37Z</time>
      </trkpt>
      <trkpt lat="46.78022" lon="4.70621">
        <ele>369.3</ele>
        <time>2010-01-01T01:43:52Z</time>
      </trkpt>
      <trkpt lat="46.77973" lon="4.70596">
        <ele>368.3</ele>
        <time>2010-01-01T01:44:13Z</time>
      </trkpt>
      <trkpt lat="46.77945" lon="4.70568">
        <ele>369.8</ele>
        <time>2010-01-01T01:44:27Z</time>
      </trkpt>
      <trkpt lat="46.77918" lon="4.70564">
        <ele>371.7</ele>
        <time>2010-01-01T01:44:37Z</time>
      </trkpt>
      <trkpt lat="46.7786" lon="4.70574">
        <ele>371.5</ele>
        <time>2010-01-01T01:45:01Z</time>
      </trkpt>
      <trkpt lat="46.77785" lon="4.7056">
        <ele>369.8</ele>
        <time>2010-01-01T01:45:31Z</time>
      </trkpt>
      <trkpt lat="46.77758" lon="4.70589">
        <ele>367.5</ele>
        <time>2010-01-01T01:45:45Z</time>
      </trkpt>
      <trkpt lat="46.77716" lon="4.70596">
        <ele>368.8</ele>
        <time>2010-01-01T01:46:01Z</time>
      </trkpt>
      <trkpt lat="46.77585" lon="4.70693">
        <ele>362.1</ele>
        <time>2010-01-01T01:47:00Z</time>
      </trkpt>
      <trkpt lat="46.77411" lon="4.70747">
        <ele>327.5</ele>
        <time>2010-01-01T01:48:12Z</time>
      </trkpt>
      <trkpt lat="46.77344" lon="4.70718">
        <ele>313.2</ele>
        <time>2010-01-01T01:48:40Z</time>
      </trkpt>
      <trkpt lat="46.77342" lon="4.70655">
        <ele>310.6</ele>
        <time>2010-01-01T01:48:57Z</time>
      </trkpt>
      <trkpt lat="46.7733" lon="4.70606">
        <ele>306.3</ele>
        <time>2010-01-01T01:49:11Z</time>
      </trkpt>
      <trkpt lat="46.77323" lon="4.70573">
        <ele>304</ele>
        <time>2010-01-01T01:49:21Z</time>
      </trkpt>
      <trkpt lat="46.77302" lon="4.70548">
        <ele>299.2</ele>
        <time>2010-01-01T01:49:32Z</time>
      </trkpt>
      <trkpt lat="46.77303" lon="4.70515">
        <ele>297.5</ele>
        <time>2010-01-01T01:49:41Z</time>
      </trkpt>
      <trkpt lat="46.77312" lon="4.70448">
        <ele>294.8</ele>
        <time>2010-01-01T01:49:59Z</time>
      </trkpt>
      <trkpt lat="46.77234" lon="4.70237">
        <ele>281.2</ele>
        <time>2010-01-01T01:51:05Z</time>
      </trkpt>
      <trkpt lat="46.77223" lon="4.70157">
        <ele>277.7</ele>
        <time>2010-01-01T01:51:28Z</time>
      </trkpt>
      <trkpt lat="46.77227" lon="4.70091">
        <ele>276</ele>
        <time>2010-01-01T01:51:46Z</time>
      </trkpt>
      <trkpt lat="46.77236" lon="4.69906">
        <ele>269.3</ele>
        <time>2010-01-01T01:52:37Z</time>
      </trkpt>
      <trkpt lat="46.77252" lon="4.6976">
        <ele>270.8</ele>
        <time>2010-01-01T01:53:17Z</time>
      </trkpt>
      <trkpt lat="46.77246" lon="4.69741">
        <ele>270.1</ele>
        <time>2010-01-01T01:53:23Z</time>
      </trkpt>
      <trkpt lat="46.77193" lon="4.69694">
        <ele>264.9</ele>
        <time>2010-01-01T01:53:48Z</time>
      </trkpt>
      <trkpt lat="46.77219" lon="4.69453">
        <ele>269.6</ele>
        <time>2010-01-01T01:54:54Z</time>
      </trkpt>
      <trkpt lat="46.77199" lon="4.69388">
        <ele>270.3</ele>
        <time>2010-01-01T01:55:14Z</time>
      </trkpt>
      <trkpt lat="46.771" lon="4.69369">
        <ele>281.9</ele>
        <time>2010-01-01T01:55:54Z</time>
      </trkpt>
      <trkpt lat="46.77066" lon="4.69472">
        <ele>283.9</ele>
        <time>2010-01-01T01:56:25Z</time>
      </trkpt>
      <trkpt lat="46.7693" lon="4.69416">
        <ele>296</ele>
        <time>2010-01-01T01:57:21Z</time>
      </trkpt>
      <trkpt lat="46.76833" lon="4.6942">
        <ele>311.2</ele>
        <time>2010-01-01T01:58:00Z</time>
      </trkpt>
      <trkpt lat="46.76784" lon="4.69395">
        <ele>323.1</ele>
        <time>2010-01-01T01:58:21Z</time>
      </trkpt>
      <trkpt lat="46.76719" lon="4.69435">
        <ele>341.1</ele>
        <time>2010-01-01T01:58:49Z</time>
      </trkpt>
      <trkpt lat="46.76688" lon="4.69483">
        <ele>348.7</ele>
        <time>2010-01-01T01:59:07Z</time>
      </trkpt>
      <trkpt lat="46.76675" lon="4.69569">
        <ele>350.6</ele>
        <time>2010-01-01T01:59:32Z</time>
      </trkpt>
      <trkpt lat="46.76685" lon="4.69677">
        <ele>351.2</ele>
        <time>2010-01-01T02:00:01Z</time>
      </trkpt>
      <trkpt lat="46.76678" lon="4.6973">
        <ele>358.1</ele>
        <time>2010-01-01T02:00:16Z</time>
      </trkpt>
      <trkpt lat="46.76666" lon="4.69757">
        <ele>362.8</ele>
        <time>2010-01-01T02:00:25Z</time>
      </trkpt>
      <trkpt lat="46.76642" lon="4.69755">
        <ele>366.1</ele>
        <time>2010-01-01T02:00:35Z</time>
      </trkpt>
      <trkpt lat="46.76609" lon="4.69713">
        <ele>372</ele>
        <time>2010-01-01T02:00:52Z</time>
      </trkpt>
      <trkpt lat="46.76443" lon="4.69462">
        <ele>394</ele>
        <time>2010-01-01T02:02:28Z</time>
      </trkpt>
      <trkpt lat="46.76433" lon="4.6942">
        <ele>397.8</ele>
        <time>2010-01-01T02:02:40Z</time>
      </trkpt>
      <trkpt lat="46.76354" lon="4.6943">
        <ele>389.5</ele>
        <time>2010-01-01T02:03:12Z</time>
      </trkpt>
      <trkpt lat="46.76333" lon="4.69444">
        <ele>386.1</ele>
        <time>2010-01-01T02:03:21Z</time>
      </trkpt>
      <trkpt lat="46.76145" lon="4.69438">
        <ele>370</ele>
        <time>2010-01-01T02:04:36Z</time>
      </trkpt>
      <trkpt lat="46.76085" lon="4.69455">
        <ele>360.1</ele>
        <time>2010-01-01T02:05:01Z</time>
      </trkpt>
      <trkpt lat="46.76059" lon="4.69439">
        <ele>355.3</ele>
        <time>2010-01-01T02:05:12Z</time>
      </trkpt>
      <trkpt lat="46.76012" lon="4.69389">
        <ele>345.2</ele>
        <time>2010-01-01T02:05:36Z</time>
      </trkpt>
      <trkpt lat="46.75964" lon="4.69287">
        <ele>334</ele>
        <time>2010-01-01T02:06:09Z</time>
      </trkpt>
      <trkpt lat="46.75925" lon="4.69214">
        <ele>324.5</ele>
        <time>2010-01-01T02:06:35Z</time>
      </trkpt>
      <trkpt lat="46.75901" lon="4.69028">
        <ele>315.6</ele>
        <time>2010-01-01T02:07:27Z</time>
      </trkpt>
      <trkpt lat="46.75853" lon="4.6888">
        <ele>302.4</ele>
        <time>2010-01-01T02:08:12Z</time>
      </trkpt>
      <trkpt lat="46.75768" lon="4.68796">
        <ele>296.2</ele>
        <time>2010-01-01T02:08:53Z</time>
      </trkpt>
      <trkpt lat="46.75729" lon="4.68813">
        <ele>295.8</ele>
        <time>2010-01-01T02:09:09Z</time>
      </trkpt>
      <trkpt lat="46.75667" lon="4.6877">
        <ele>297.3</ele>
        <time>2010-01-01T02:09:36Z</time>
      </trkpt>
      <trkpt lat="46.75614" lon="4.68742">
        <ele>295.5</ele>
        <time>2010-01-01T02:09:59Z</time>
      </trkpt>
      <trkpt lat="46.75509" lon="4.6873">
        <ele>284.6</ele>
        <time>2010-01-01T02:10:41Z</time>
      </trkpt>
      <trkpt lat="46.75488" lon="4.68666">
        <ele>280.8</ele>
        <time>2010-01-01T02:11:01Z</time>
      </trkpt>
      <trkpt lat="46.75487" lon="4.68597">
        <ele>275.4</ele>
        <time>2010-01-01T02:11:20Z</time>
      </trkpt>
      <trkpt lat="46.75407" lon="4.68617">
        <ele>265.6</ele>
        <time>2010-01-01T02:11:52Z</time>
      </trkpt>
      <trkpt lat="46.75338" lon="4.68522">
        <ele>260.6</ele>
        <time>2010-01-01T02:12:30Z</time>
      </trkpt>
      <trkpt lat="46.75313" lon="4.68407">
        <ele>263.7</ele>
        <time>2010-01-01T02:13:03Z</time>
      </trkpt>
      <trkpt lat="46.75246" lon="4.68352">
        <ele>273.3</ele>
        <time>2010-01-01T02:13:34Z</time>
      </trkpt>
      <trkpt lat="46.75209" lon="4.68309">
        <ele>282.7</ele>
        <time>2010-01-01T02:13:53Z</time>
      </trkpt>
      <trkpt lat="46.75157" lon="4.6817">
        <ele>298.8</ele>
        <time>2010-01-01T02:14:36Z</time>
      </trkpt>
      <trkpt lat="46.75133" lon="4.68025">
        <ele>316.8</ele>
        <time>2010-01-01T02:15:17Z</time>
      </trkpt>
      <trkpt lat="46.7511" lon="4.68024">
        <ele>318.5</ele>
        <time>2010-01-01T02:15:26Z</time>
      </trkpt>
      <trkpt lat="46.75071" lon="4.67997">
        <ele>318.1</ele>
        <time>2010-01-01T02:15:43Z</time>
      </trkpt>
      <trkpt lat="46.75069" lon="4.6791">
        <ele>328.2</ele>
        <time>2010-01-01T02:16:07Z</time>
      </trkpt>
      <trkpt lat="46.7509" lon="4.67881">
        <ele>330.8</ele>
        <time>2010-01-01T02:16:19Z</time>
      </trkpt>
      <trkpt lat="46.75099" lon="4.67763">
        <ele>337.8</ele>
        <time>2010-01-01T02:16:52Z</time>
      </trkpt>
      <trkpt lat="46.75034" lon="4.67637">
        <ele>344.3</ele>
        <time>2010-01-01T02:17:35Z</time>
      </trkpt>
      <trkpt lat="46.74968" lon="4.67559">
        <ele>342.2</ele>
        <time>2010-01-01T02:18:09Z</time>
      </trkpt>
      <trkpt lat="46.74931" lon="4.67536">
        <ele>339.5</ele>
        <time>2010-01-01T02:18:25Z</time>
      </trkpt>
      <trkpt lat="46.74895" lon="4.67469">
        <ele>336.6</ele>
        <time>2010-01-01T02:18:48Z</time>
      </trkpt>
      <trkpt lat="46.74876" lon="4.67435">
        <ele>335.1</ele>
        <time>2010-01-01T02:19:00Z</time>
      </trkpt>
      <trkpt lat="46.74855" lon="4.67307">
        <ele>333.8</ele>
        <time>2010-01-01T02:19:36Z</time>
      </trkpt>
      <trkpt lat="46.74784" lon="4.67237">
        <ele>333.4</ele>
        <time>2010-01-01T02:20:11Z</time>
      </trkpt>
      <trkpt lat="46.74718" lon="4.67143">
        <ele>332.4</ele>
        <time>2010-01-01T02:20:48Z</time>
      </trkpt>
      <trkpt lat="46.74672" lon="4.67126">
        <ele>333.5</ele>
        <time>2010-01-01T02:21:07Z</time>
      </trkpt>
      <trkpt lat="46.74617" lon="4.67092">
        <ele>335.6</ele>
        <time>2010-01-01T02:21:30Z</time>
      </trkpt>
      <trkpt lat="46.74584" lon="4.67054">
        <ele>336</ele>
        <time>2010-01-01T02:21:47Z</time>
      </trkpt>
      <trkpt lat="46.74395" lon="4.67022">
        <ele>342.4</ele>
        <time>2010-01-01T02:23:03Z</time>
      </trkpt>
      <trkpt lat="46.74286" lon="4.67035">
        <ele>346.8</ele>
        <time>2010-01-01T02:23:47Z</time>
      </trkpt>
      <trkpt lat="46.74201" lon="4.67013">
        <ele>349.7</ele>
        <time>2010-01-01T02:24:22Z</time>
      </trkpt>
      <trkpt lat="46.74153" lon="4.67023">
        <ele>351.9</ele>
        <time>2010-01-01T02:24:41Z</time>
      </trkpt>
      <trkpt lat="46.7411" lon="4.67058">
        <ele>355.1</ele>
        <time>2010-01-01T02:25:01Z</time>
      </trkpt>
      <trkpt lat="46.74072" lon="4.67113">
        <ele>357.8</ele>
        <time>2010-01-01T02:25:22Z</time>
      </trkpt>
      <trkpt lat="46.73936" lon="4.67215">
        <ele>366</ele>
        <time>2010-01-01T02:26:24Z</time>
      </trkpt>
      <trkpt lat="46.7391" lon="4.6723">
        <ele>366.7</ele>
        <time>2010-01-01T02:26:35Z</time>
      </trkpt>
      <trkpt lat="46.73648" lon="4.67275">
        <ele>379.2</ele>
        <time>2010-01-01T02:28:21Z</time>
      </trkpt>
      <trkpt lat="46.73651" lon="4.67443">
        <ele>375.6</ele>
        <time>2010-01-01T02:29:07Z</time>
      </trkpt>
      <trkpt lat="46.73571" lon="4.67434">
        <ele>375.2</ele>
        <time>2010-01-01T02:29:39Z</time>
      </trkpt>
      <trkpt lat="46.73539" lon="4.67436">
        <ele>373.5</ele>
        <time>2010-01-01T02:29:52Z</time>
      </trkpt>
      <trkpt lat="46.73516" lon="4.67481">
        <ele>372.6</ele>
        <time>2010-01-01T02:30:07Z</time>
      </trkpt>
      <trkpt lat="46.73453" lon="4.6742">
        <ele>367.3</ele>
        <time>2010-01-01T02:30:37Z</time>
      </trkpt>
      <trkpt lat="46.73198" lon="4.67225">
        <ele>377</ele>
        <time>2010-01-01T02:32:32Z</time>
      </trkpt>
      <trkpt lat="46.73138" lon="4.67163">
        <ele>380.3</ele>
        <time>2010-01-01T02:33:02Z</time>
      </trkpt>
      <trkpt lat="46.73011" lon="4.66973">
        <ele>387</ele>
        <time>2010-01-01T02:34:15Z</time>
      </trkpt>
      <trkpt lat="46.72785" lon="4.66815">
        <ele>379.4</ele>
        <time>2010-01-01T02:35:55Z</time>
      </trkpt>
      <trkpt lat="46.72715" lon="4.66742">
        <ele>377</ele>
        <time>2010-01-01T02:36:29Z</time>
      </trkpt>
      <trkpt lat="46.7269" lon="4.66744">
        <ele>376.2</ele>
        <time>2010-01-01T02:36:39Z</time>
      </trkpt>
      <trkpt lat="46.72623" lon="4.66704">
        <ele>377.2</ele>
        <time>2010-01-01T02:37:08Z</time>
      </trkpt>
      <trkpt lat="46.72562" lon="4.6673">
        <ele>378.8</ele>
        <time>2010-01-01T02:37:34Z</time>
      </trkpt>
      <trkpt lat="46.7246" lon="4.66761">
        <ele>384.9</ele>
        <time>2010-01-01T02:38:16Z</time>
      </trkpt>
      <trkpt lat="46.72382" lon="4.66737">
        <ele>390.7</ele>
        <time>2010-01-01T02:38:47Z</time>
      </trkpt>
      <trkpt lat="46.72355" lon="4.6684">
        <ele>388</ele>
        <time>2010-01-01T02:39:18Z</time>
      </trkpt>
      <trkpt lat="46.72316" lon="4.66906">
        <ele>389.3</ele>
        <time>2010-01-01T02:39:42Z</time>
      </trkpt>
      <trkpt lat="46.72247" lon="4.66985">
        <ele>397.7</ele>
        <time>2010-01-01T02:40:17Z</time>
      </trkpt>
      <trkpt lat="46.72227" lon="4.66996">
        <ele>400.3</ele>
        <time>2010-01-01T02:40:26Z</time>
      </trkpt>
      <trkpt lat="46.72135" lon="4.66959">
        <ele>408.8</ele>
        <time>2010-01-01T02:41:04Z</time>
      </trkpt>
      <trkpt lat="46.71995" lon="4.66866">
        <ele>413.5</ele>
        <time>2010-01-01T02:42:05Z</time>
      </trkpt>
      <trkpt lat="46.71949" lon="4.6681">
        <ele>407.6</ele>
        <time>2010-01-01T02:42:29Z</time>
      </trkpt>
      <trkpt lat="46.7187" lon="4.66689">
        <ele>402.1</ele>
        <time>2010-01-01T02:43:15Z</time>
      </trkpt>
      <trkpt lat="46.71761" lon="4.66577">
        <ele>397</ele>
        <time>2010-01-01T02:44:09Z</time>
      </trkpt>
      <trkpt lat="46.71701" lon="4.66522">
        <ele>393.5</ele>
        <time>2010-01-01T02:44:37Z</time>
      </trkpt>
      <trkpt lat="46.71608" lon="4.66511">
        <ele>387.2</ele>
        <time>2010-01-01T02:45:14Z</time>
      </trkpt>
      <trkpt lat="46.71523" lon="4.66503">
        <ele>384</ele>
        <time>2010-01-01T02:45:48Z</time>
      </trkpt>
      <trkpt lat="46.71484" lon="4.66519">
        <ele>384.6</ele>
        <time>2010-01-01T02:46:04Z</time>
      </trkpt>
      <trkpt lat="46.71381" lon="4.6662">
        <ele>387.7</ele>
        <time>2010-01-01T02:46:54Z</time>
      </trkpt>
      <trkpt lat="46.71257" lon="4.66701">
        <ele>394.5</ele>
        <time>2010-01-01T02:47:48Z</time>
      </trkpt>
      <trkpt lat="46.71143" lon="4.66742">
        <ele>401.1</ele>
        <time>2010-01-01T02:48:36Z</time>
      </trkpt>
      <trkpt lat="46.71089" lon="4.6674">
        <ele>403.2</ele>
        <time>2010-01-01T02:48:57Z</time>
      </trkpt>
      <trkpt lat="46.71023" lon="4.66708">
        <ele>404.9</ele>
        <time>2010-01-01T02:49:25Z</time>
      </trkpt>
      <trkpt lat="46.70947" lon="4.66691">
        <ele>403.1</ele>
        <time>2010-01-01T02:49:56Z</time>
      </trkpt>
      <trkpt lat="46.70873" lon="4.66642">
        <ele>398.9</ele>
        <time>2010-01-01T02:50:28Z</time>
      </trkpt>
      <trkpt lat="46.70781" lon="4.66612">
        <ele>392.2</ele>
        <time>2010-01-01T02:51:06Z</time>
      </trkpt>
      <trkpt lat="46.70729" lon="4.66612">
        <ele>387.8</ele>
        <time>2010-01-01T02:51:27Z</time>
      </trkpt>
      <trkpt lat="46.7066" lon="4.66588">
        <ele>381.1</ele>
        <time>2010-01-01T02:51:55Z</time>
      </trkpt>
      <trkpt lat="46.70596" lon="4.6658">
        <ele>376.7</ele>
        <time>2010-01-01T02:52:21Z</time>
      </trkpt>
      <trkpt lat="46.70567" lon="4.66614">
        <ele>371.2</ele>
        <time>2010-01-01T02:52:36Z</time>
      </trkpt>
      <trkpt lat="46.70479" lon="4.66344">
        <ele>373.8</ele>
        <time>2010-01-01T02:53:58Z</time>
      </trkpt>
      <trkpt lat="46.70451" lon="4.66447">
        <ele>376.1</ele>
        <time>2010-01-01T02:54:28Z</time>
      </trkpt>
      <trkpt lat="46.70466" lon="4.66523">
        <ele>377.2</ele>
        <time>2010-01-01T02:54:50Z</time>
      </trkpt>
      <trkpt lat="46.70482" lon="4.66646">
        <ele>370.2</ele>
        <time>2010-01-01T02:55:24Z</time>
      </trkpt>
      <trkpt lat="46.70462" lon="4.66673">
        <ele>372.3</ele>
        <time>2010-01-01T02:55:35Z</time>
      </trkpt>
      <trkpt lat="46.7043" lon="4.66769">
        <ele>375.8</ele>
        <time>2010-01-01T02:56:04Z</time>
      </trkpt>
      <trkpt lat="46.70401" lon="4.66803">
        <ele>377.8</ele>
        <time>2010-01-01T02:56:19Z</time>
      </trkpt>
      <trkpt lat="46.70364" lon="4.66809">
        <ele>381.6</ele>
        <time>2010-01-01T02:56:34Z</time>
      </trkpt>
      <trkpt lat="46.70197" lon="4.6699">
        <ele>391.7</ele>
        <time>2010-01-01T02:57:57Z</time>
      </trkpt>
      <trkpt lat="46.70043" lon="4.6703">
        <ele>398.3</ele>
        <time>2010-01-01T02:59:00Z</time>
      </trkpt>
      <trkpt lat="46.6998" lon="4.67065">
        <ele>397.9</ele>
        <time>2010-01-01T02:59:27Z</time>
      </trkpt>
      <trkpt lat="46.69916" lon="4.67084">
        <ele>395.8</ele>
        <time>2010-01-01T02:59:53Z</time>
      </trkpt>
      <trkpt lat="46.69839" lon="4.67021">
        <ele>398.3</ele>
        <time>2010-01-01T03:00:28Z</time>
      </trkpt>
      <trkpt lat="46.69776" lon="4.6689">
        <ele>405.1</ele>
        <time>2010-01-01T03:01:12Z</time>
      </trkpt>
      <trkpt lat="46.69473" lon="4.66683">
        <ele>402.5</ele>
        <time>2010-01-01T03:03:26Z</time>
      </trkpt>
      <trkpt lat="46.69355" lon="4.66592">
        <ele>400.4</ele>
        <time>2010-01-01T03:04:20Z</time>
      </trkpt>
      <trkpt lat="46.69143" lon="4.66532">
        <ele>402.1</ele>
        <time>2010-01-01T03:05:46Z</time>
      </trkpt>
      <trkpt lat="46.68843" lon="4.66283">
        <ele>386</ele>
        <time>2010-01-01T03:08:04Z</time>
      </trkpt>
      <trkpt lat="46.68638" lon="4.66431">
        <ele>393.1</ele>
        <time>2010-01-01T03:09:36Z</time>
      </trkpt>
      <trkpt lat="46.68454" lon="4.66517">
        <ele>400</ele>
        <time>2010-01-01T03:10:53Z</time>
      </trkpt>
      <trkpt lat="46.68148" lon="4.66482">
        <ele>390.3</ele>
        <time>2010-01-01T03:12:56Z</time>
      </trkpt>
      <trkpt lat="46.67956" lon="4.66567">
        <ele>403.8</ele>
        <time>2010-01-01T03:14:16Z</time>
      </trkpt>
      <trkpt lat="46.67876" lon="4.66582">
        <ele>411.9</ele>
        <time>2010-01-01T03:14:49Z</time>
      </trkpt>
      <trkpt lat="46.67824" lon="4.66603">
        <ele>415.7</ele>
        <time>2010-01-01T03:15:10Z</time>
      </trkpt>
      <trkpt lat="46.67723" lon="4.66582">
        <ele>420</ele>
        <time>2010-01-01T03:15:51Z</time>
      </trkpt>
      <trkpt lat="46.67464" lon="4.66447">
        <ele>417.9</ele>
        <time>2010-01-01T03:17:41Z</time>
      </trkpt>
      <trkpt lat="46.67346" lon="4.66381">
        <ele>413.7</ele>
        <time>2010-01-01T03:18:31Z</time>
      </trkpt>
      <trkpt lat="46.67219" lon="4.66336">
        <ele>411.8</ele>
        <time>2010-01-01T03:19:24Z</time>
      </trkpt>
      <trkpt lat="46.67108" lon="4.66411">
        <ele>414.4</ele>
        <time>2010-01-01T03:20:13Z</time>
      </trkpt>
      <trkpt lat="46.67033" lon="4.66545">
        <ele>411.3</ele>
        <time>2010-01-01T03:21:00Z</time>
      </trkpt>
      <trkpt lat="46.66946" lon="4.66653">
        <ele>400.7</ele>
        <time>2010-01-01T03:21:46Z</time>
      </trkpt>
      <trkpt lat="46.66874" lon="4.66717">
        <ele>385.2</ele>
        <time>2010-01-01T03:22:20Z</time>
      </trkpt>
      <trkpt lat="46.66808" lon="4.66712">
        <ele>383.1</ele>
        <time>2010-01-01T03:22:46Z</time>
      </trkpt>
      <trkpt lat="46.66548" lon="4.66576">
        <ele>381.7</ele>
        <time>2010-01-01T03:24:37Z</time>
      </trkpt>
      <trkpt lat="46.66472" lon="4.66624">
        <ele>373.6</ele>
        <time>2010-01-01T03:25:10Z</time>
      </trkpt>
      <trkpt lat="46.6625" lon="4.66514">
        <ele>378</ele>
        <time>2010-01-01T03:26:44Z</time>
      </trkpt>
      <trkpt lat="46.65999" lon="4.66511">
        <ele>368.4</ele>
        <time>2010-01-01T03:28:24Z</time>
      </trkpt>
      <trkpt lat="46.65835" lon="4.66302">
        <ele>358.8</ele>
        <time>2010-01-01T03:29:51Z</time>
      </trkpt>
      <trkpt lat="46.65682" lon="4.6618">
        <ele>370.6</ele>
        <time>2010-01-01T03:31:01Z</time>
      </trkpt>
      <trkpt lat="46.65612" lon="4.66164">
        <ele>363.1</ele>
        <time>2010-01-01T03:31:30Z</time>
      </trkpt>
      <trkpt lat="46.65472" lon="4.66001">
        <ele>352.9</ele>
        <time>2010-01-01T03:32:41Z</time>
      </trkpt>
      <trkpt lat="46.65383" lon="4.65787">
        <ele>338.6</ele>
        <time>2010-01-01T03:33:50Z</time>
      </trkpt>
      <trkpt lat="46.65362" lon="4.65461">
        <ele>324.7</ele>
        <time>2010-01-01T03:35:20Z</time>
      </trkpt>
      <trkpt lat="46.653" lon="4.65444">
        <ele>317.1</ele>
        <time>2010-01-01T03:35:45Z</time>
      </trkpt>
      <trkpt lat="46.6522" lon="4.65441">
        <ele>306.1</ele>
        <time>2010-01-01T03:36:17Z</time>
      </trkpt>
      <trkpt lat="46.65055" lon="4.65479">
        <ele>287.7</ele>
        <time>2010-01-01T03:37:24Z</time>
      </trkpt>
      <trkpt lat="46.64912" lon="4.65403">
        <ele>280.3</ele>
        <time>2010-01-01T03:38:25Z</time>
      </trkpt>
      <trkpt lat="46.64847" lon="4.65442">
        <ele>287.4</ele>
        <time>2010-01-01T03:38:53Z</time>
      </trkpt>
      <trkpt lat="46.64773" lon="4.65551">
        <ele>295.1</ele>
        <time>2010-01-01T03:39:35Z</time>
      </trkpt>
      <trkpt lat="46.6467" lon="4.65721">
        <ele>299.1</ele>
        <time>2010-01-01T03:40:38Z</time>
      </trkpt>
      <trkpt lat="46.64584" lon="4.65785">
        <ele>308.6</ele>
        <time>2010-01-01T03:41:16Z</time>
      </trkpt>
      <trkpt lat="46.64381" lon="4.65882">
        <ele>323.9</ele>
        <time>2010-01-01T03:42:42Z</time>
      </trkpt>
      <trkpt lat="46.64188" lon="4.65926">
        <ele>340.1</ele>
        <time>2010-01-01T03:44:00Z</time>
      </trkpt>
      <trkpt lat="46.64104" lon="4.6587">
        <ele>334.7</ele>
        <time>2010-01-01T03:44:37Z</time>
      </trkpt>
      <trkpt lat="46.64051" lon="4.659">
        <ele>333.3</ele>
        <time>2010-01-01T03:45:00Z</time>
      </trkpt>
      <trkpt lat="46.64009" lon="4.65951">
        <ele>335.5</ele>
        <time>2010-01-01T03:45:22Z</time>
      </trkpt>
      <trkpt lat="46.6382" lon="4.65886">
        <ele>343.4</ele>
        <time>2010-01-01T03:46:40Z</time>
      </trkpt>
      <trkpt lat="46.63737" lon="4.65927">
        <ele>346.4</ele>
        <time>2010-01-01T03:47:15Z</time>
      </trkpt>
      <trkpt lat="46.63614" lon="4.65946">
        <ele>341.1</ele>
        <time>2010-01-01T03:48:04Z</time>
      </trkpt>
      <trkpt lat="46.63565" lon="4.66037">
        <ele>334.6</ele>
        <time>2010-01-01T03:48:36Z</time>
      </trkpt>
      <trkpt lat="46.63445" lon="4.66065">
        <ele>321.1</ele>
        <time>2010-01-01T03:49:25Z</time>
      </trkpt>
      <trkpt lat="46.63396" lon="4.66137">
        <ele>316.4</ele>
        <time>2010-01-01T03:49:52Z</time>
      </trkpt>
      <trkpt lat="46.63187" lon="4.66252">
        <ele>310.8</ele>
        <time>2010-01-01T03:51:22Z</time>
      </trkpt>
      <trkpt lat="46.63089" lon="4.66406">
        <ele>314.4</ele>
        <time>2010-01-01T03:52:20Z</time>
      </trkpt>
      <trkpt lat="46.62954" lon="4.66525">
        <ele>326.1</ele>
        <time>2010-01-01T03:53:23Z</time>
      </trkpt>
      <trkpt lat="46.62863" lon="4.66593">
        <ele>329.7</ele>
        <time>2010-01-01T03:54:03Z</time>
      </trkpt>
      <trkpt lat="46.62755" lon="4.66649">
        <ele>337</ele>
        <time>2010-01-01T03:54:50Z</time>
      </trkpt>
      <trkpt lat="46.62614" lon="4.6667">
        <ele>342.1</ele>
        <time>2010-01-01T03:55:46Z</time>
      </trkpt>
      <trkpt lat="46.62509" lon="4.66664">
        <ele>345.4</ele>
        <time>2010-01-01T03:56:28Z</time>
      </trkpt>
      <trkpt lat="46.62275" lon="4.66641">
        <ele>322.4</ele>
        <time>2010-01-01T03:58:02Z</time>
      </trkpt>
      <trkpt lat="46.62145" lon="4.66616">
        <ele>327.5</ele>
        <time>2010-01-01T03:58:55Z</time>
      </trkpt>
      <trkpt lat="46.62053" lon="4.6662">
        <ele>322.4</ele>
        <time>2010-01-01T03:59:32Z</time>
      </trkpt>
      <trkpt lat="46.61964" lon="4.66639">
        <ele>311.3</ele>
        <time>2010-01-01T04:00:07Z</time>
      </trkpt>
      <trkpt lat="46.61872" lon="4.66662">
        <ele>297.2</ele>
        <time>2010-01-01T04:00:45Z</time>
      </trkpt>
      <trkpt lat="46.61736" lon="4.66603">
        <ele>291.8</ele>
        <time>2010-01-01T04:01:42Z</time>
      </trkpt>
      <trkpt lat="46.61577" lon="4.66522">
        <ele>268.5</ele>
        <time>2010-01-01T04:02:49Z</time>
      </trkpt>
      <trkpt lat="46.61486" lon="4.66426">
        <ele>248.3</ele>
        <time>2010-01-01T04:03:34Z</time>
      </trkpt>
      <trkpt lat="46.61468" lon="4.66524">
        <ele>254.3</ele>
        <time>2010-01-01T04:04:02Z</time>
      </trkpt>
      <trkpt lat="46.61425" lon="4.66488">
        <ele>246.9</ele>
        <time>2010-01-01T04:04:22Z</time>
      </trkpt>
      <trkpt lat="46.61378" lon="4.6644">
        <ele>239</ele>
        <time>2010-01-01T04:04:45Z</time>
      </trkpt>
      <trkpt lat="46.61355" lon="4.66262">
        <ele>231.7</ele>
        <time>2010-01-01T04:05:35Z</time>
      </trkpt>
    </trkseg>
  </trk>
</gpx>